sensor_id;sensor_type;location;lat;lon;timestamp;temperature;humidity
9943;DHT22;5010;45.080;7.634;2024-03-06T00:02:24;7.50;1.00
9943;DHT22;5010;45.080;7.634;2024-03-06T00:04:52;7.50;1.00
9943;DHT22;5010;45.080;7.634;2024-03-06T00:07:21;7.60;1.00
9943;DHT22;5010;45.080;7.634;2024-03-06T00:09:49;7.50;1.00
9943;DHT22;5010;45.080;7.634;2024-03-06T00:12:16;7.30;1.00
9943;DHT22;5010;45.080;7.634;2024-03-06T00:14:44;7.30;1.00
9943;DHT22;5010;45.080;7.634;2024-03-06T00:17:11;7.30;1.00
9943;DHT22;5010;45.080;7.634;2024-03-06T00:19:39;7.20;1.00
9943;DHT22;5010;45.080;7.634;2024-03-06T00:22:06;7.00;1.00
9943;DHT22;5010;45.080;7.634;2024-03-06T00:24:35;7.00;1.00
9943;DHT22;5010;45.080;7.634;2024-03-06T00:27:03;7.00;1.00
9943;DHT22;5010;45.080;7.634;2024-03-06T00:29:31;7.00;1.00
9943;DHT22;5010;45.080;7.634;2024-03-06T00:31:59;7.10;1.00
9943;DHT22;5010;45.080;7.634;2024-03-06T00:34:26;7.10;1.00
9943;DHT22;5010;45.080;7.634;2024-03-06T00:36:55;7.10;1.00
9943;DHT22;5010;45.080;7.634;2024-03-06T00:39:22;7.10;1.00
9943;DHT22;5010;45.080;7.634;2024-03-06T00:41:52;6.90;1.00
9943;DHT22;5010;45.080;7.634;2024-03-06T00:44:19;6.80;1.00
9943;DHT22;5010;45.080;7.634;2024-03-06T00:46:46;6.80;1.00
9943;DHT22;5010;45.080;7.634;2024-03-06T00:49:14;6.70;1.00
9943;DHT22;5010;45.080;7.634;2024-03-06T00:51:42;6.70;1.00
9943;DHT22;5010;45.080;7.634;2024-03-06T00:54:10;6.70;1.00
9943;DHT22;5010;45.080;7.634;2024-03-06T00:56:38;6.70;1.00
9943;DHT22;5010;45.080;7.634;2024-03-06T00:59:07;6.70;1.00
9943;DHT22;5010;45.080;7.634;2024-03-06T01:01:34;6.70;1.00
9943;DHT22;5010;45.080;7.634;2024-03-06T01:04:02;6.90;1.00
9943;DHT22;5010;45.080;7.634;2024-03-06T01:06:29;7.00;1.00
9943;DHT22;5010;45.080;7.634;2024-03-06T01:08:57;7.10;1.00
9943;DHT22;5010;45.080;7.634;2024-03-06T01:11:24;7.20;1.00
9943;DHT22;5010;45.080;7.634;2024-03-06T01:13:52;7.20;1.00
9943;DHT22;5010;45.080;7.634;2024-03-06T01:16:21;7.30;1.00
9943;DHT22;5010;45.080;7.634;2024-03-06T01:18:49;7.30;1.00
9943;DHT22;5010;45.080;7.634;2024-03-06T01:21:16;7.30;1.00
9943;DHT22;5010;45.080;7.634;2024-03-06T01:23:44;7.20;1.00
9943;DHT22;5010;45.080;7.634;2024-03-06T01:26:11;7.10;1.00
9943;DHT22;5010;45.080;7.634;2024-03-06T01:28:39;6.90;1.00
9943;DHT22;5010;45.080;7.634;2024-03-06T01:31:06;6.80;1.00
9943;DHT22;5010;45.080;7.634;2024-03-06T01:33:35;6.60;1.00
9943;DHT22;5010;45.080;7.634;2024-03-06T01:36:03;6.50;1.00
9943;DHT22;5010;45.080;7.634;2024-03-06T01:38:30;6.50;1.00
9943;DHT22;5010;45.080;7.634;2024-03-06T01:40:58;6.40;1.00
9943;DHT22;5010;45.080;7.634;2024-03-06T01:43:26;6.40;1.00
9943;DHT22;5010;45.080;7.634;2024-03-06T01:45:54;6.40;1.00
9943;DHT22;5010;45.080;7.634;2024-03-06T01:48:28;6.40;1.00
9943;DHT22;5010;45.080;7.634;2024-03-06T01:50:59;6.40;1.00
9943;DHT22;5010;45.080;7.634;2024-03-06T01:53:29;6.50;1.00
9943;DHT22;5010;45.080;7.634;2024-03-06T01:55:58;6.50;1.00
9943;DHT22;5010;45.080;7.634;2024-03-06T01:58:27;6.60;1.00
9943;DHT22;5010;45.080;7.634;2024-03-06T02:00:57;6.60;1.00
9943;DHT22;5010;45.080;7.634;2024-03-06T02:03:25;6.50;1.00
9943;DHT22;5010;45.080;7.634;2024-03-06T02:05:53;6.50;1.00
9943;DHT22;5010;45.080;7.634;2024-03-06T02:08:22;6.60;1.00
9943;DHT22;5010;45.080;7.634;2024-03-06T02:10:50;6.70;1.00
9943;DHT22;5010;45.080;7.634;2024-03-06T02:13:17;6.80;1.00
9943;DHT22;5010;45.080;7.634;2024-03-06T02:15:45;6.70;1.00
9943;DHT22;5010;45.080;7.634;2024-03-06T02:18:13;6.60;1.00
9943;DHT22;5010;45.080;7.634;2024-03-06T02:20:42;6.60;1.00
9943;DHT22;5010;45.080;7.634;2024-03-06T02:23:09;6.50;1.00
9943;DHT22;5010;45.080;7.634;2024-03-06T02:25:36;6.50;1.00
9943;DHT22;5010;45.080;7.634;2024-03-06T02:28:04;6.50;1.00
9943;DHT22;5010;45.080;7.634;2024-03-06T02:30:32;6.50;1.00
9943;DHT22;5010;45.080;7.634;2024-03-06T02:33:02;6.50;1.00
9943;DHT22;5010;45.080;7.634;2024-03-06T02:35:32;6.50;1.00
9943;DHT22;5010;45.080;7.634;2024-03-06T02:38:01;6.50;1.00
9943;DHT22;5010;45.080;7.634;2024-03-06T02:40:28;6.50;1.00
9943;DHT22;5010;45.080;7.634;2024-03-06T02:42:56;6.60;1.00
9943;DHT22;5010;45.080;7.634;2024-03-06T02:45:23;6.60;1.00
9943;DHT22;5010;45.080;7.634;2024-03-06T02:47:51;6.60;1.00
9943;DHT22;5010;45.080;7.634;2024-03-06T02:50:18;6.50;1.00
9943;DHT22;5010;45.080;7.634;2024-03-06T02:52:46;6.50;1.00
9943;DHT22;5010;45.080;7.634;2024-03-06T02:55:15;6.50;1.00
9943;DHT22;5010;45.080;7.634;2024-03-06T02:57:43;6.60;1.00
9943;DHT22;5010;45.080;7.634;2024-03-06T03:00:11;6.60;1.00
9943;DHT22;5010;45.080;7.634;2024-03-06T03:02:39;6.60;1.00
9943;DHT22;5010;45.080;7.634;2024-03-06T03:05:07;6.60;1.00
9943;DHT22;5010;45.080;7.634;2024-03-06T03:07:35;6.60;1.00
9943;DHT22;5010;45.080;7.634;2024-03-06T03:10:03;6.60;1.00
9943;DHT22;5010;45.080;7.634;2024-03-06T03:12:33;6.40;1.00
9943;DHT22;5010;45.080;7.634;2024-03-06T03:15:01;6.40;1.00
9943;DHT22;5010;45.080;7.634;2024-03-06T03:17:28;6.40;1.00
9943;DHT22;5010;45.080;7.634;2024-03-06T03:19:56;6.20;1.00
9943;DHT22;5010;45.080;7.634;2024-03-06T03:22:23;6.10;1.00
9943;DHT22;5010;45.080;7.634;2024-03-06T03:24:51;6.20;1.00
9943;DHT22;5010;45.080;7.634;2024-03-06T03:27:18;6.30;1.00
9943;DHT22;5010;45.080;7.634;2024-03-06T03:29:47;6.30;1.00
9943;DHT22;5010;45.080;7.634;2024-03-06T03:32:15;6.20;1.00
9943;DHT22;5010;45.080;7.634;2024-03-06T03:34:42;6.20;1.00
9943;DHT22;5010;45.080;7.634;2024-03-06T03:37:10;6.20;1.00
9943;DHT22;5010;45.080;7.634;2024-03-06T03:39:38;6.20;1.00
9943;DHT22;5010;45.080;7.634;2024-03-06T03:42:06;6.20;1.00
9943;DHT22;5010;45.080;7.634;2024-03-06T03:44:33;6.20;1.00
9943;DHT22;5010;45.080;7.634;2024-03-06T03:47:02;6.30;1.00
9943;DHT22;5010;45.080;7.634;2024-03-06T03:49:30;6.40;1.00
9943;DHT22;5010;45.080;7.634;2024-03-06T03:51:57;6.50;1.00
9943;DHT22;5010;45.080;7.634;2024-03-06T03:54:24;6.50;1.00
9943;DHT22;5010;45.080;7.634;2024-03-06T03:56:52;6.40;1.00
9943;DHT22;5010;45.080;7.634;2024-03-06T03:59:20;6.20;1.00
9943;DHT22;5010;45.080;7.634;2024-03-06T04:01:47;6.10;1.00
9943;DHT22;5010;45.080;7.634;2024-03-06T04:04:16;6.00;1.00
9943;DHT22;5010;45.080;7.634;2024-03-06T04:06:43;5.90;1.00
9943;DHT22;5010;45.080;7.634;2024-03-06T04:09:11;6.00;1.00
9943;DHT22;5010;45.080;7.634;2024-03-06T04:11:40;6.10;1.00
9943;DHT22;5010;45.080;7.634;2024-03-06T04:14:08;6.10;1.00
9943;DHT22;5010;45.080;7.634;2024-03-06T04:16:36;6.10;1.00
9943;DHT22;5010;45.080;7.634;2024-03-06T04:19:04;6.20;1.00
9943;DHT22;5010;45.080;7.634;2024-03-06T04:21:33;6.20;1.00
9943;DHT22;5010;45.080;7.634;2024-03-06T04:24:00;6.30;1.00
9943;DHT22;5010;45.080;7.634;2024-03-06T04:26:28;6.30;1.00
9943;DHT22;5010;45.080;7.634;2024-03-06T04:28:55;6.30;1.00
9943;DHT22;5010;45.080;7.634;2024-03-06T04:31:23;6.20;1.00
9943;DHT22;5010;45.080;7.634;2024-03-06T04:33:51;6.30;1.00
9943;DHT22;5010;45.080;7.634;2024-03-06T04:36:18;6.40;1.00
9943;DHT22;5010;45.080;7.634;2024-03-06T04:38:47;6.50;1.00
9943;DHT22;5010;45.080;7.634;2024-03-06T04:41:15;6.40;1.00
9943;DHT22;5010;45.080;7.634;2024-03-06T04:43:45;6.40;1.00
9943;DHT22;5010;45.080;7.634;2024-03-06T04:46:13;6.50;1.00
9943;DHT22;5010;45.080;7.634;2024-03-06T04:48:41;6.40;1.00
9943;DHT22;5010;45.080;7.634;2024-03-06T04:51:08;6.40;1.00
9943;DHT22;5010;45.080;7.634;2024-03-06T04:53:36;6.30;1.00
9943;DHT22;5010;45.080;7.634;2024-03-06T04:56:05;6.30;1.00
9943;DHT22;5010;45.080;7.634;2024-03-06T04:58:33;6.30;1.00
9943;DHT22;5010;45.080;7.634;2024-03-06T05:01:00;6.30;1.00
9943;DHT22;5010;45.080;7.634;2024-03-06T07:37:56;6.60;1.00
9943;DHT22;5010;45.080;7.634;2024-03-06T07:40:24;6.70;1.00
9943;DHT22;5010;45.080;7.634;2024-03-06T07:42:51;6.70;1.00
9943;DHT22;5010;45.080;7.634;2024-03-06T08:51:27;7.70;1.00
9943;DHT22;5010;45.080;7.634;2024-03-06T08:54:28;7.80;99.90
9943;DHT22;5010;45.080;7.634;2024-03-06T08:56:57;7.80;99.90
9943;DHT22;5010;45.080;7.634;2024-03-06T08:59:25;7.90;99.90
9943;DHT22;5010;45.080;7.634;2024-03-06T09:01:53;8.10;99.90
9943;DHT22;5010;45.080;7.634;2024-03-06T09:34:40;9.90;26.00
9943;DHT22;5010;45.080;7.634;2024-03-06T09:37:08;10.00;1.00
9943;DHT22;5010;45.080;7.634;2024-03-06T09:39:36;10.10;1.00
9943;DHT22;5010;45.080;7.634;2024-03-06T09:42:03;10.30;99.90
9943;DHT22;5010;45.080;7.634;2024-03-06T09:44:31;10.40;1.00
9943;DHT22;5010;45.080;7.634;2024-03-06T09:47:02;10.40;1.00
9943;DHT22;5010;45.080;7.634;2024-03-06T11:38:20;12.30;99.90
9943;DHT22;5010;45.080;7.634;2024-03-06T11:40:52;13.40;99.90
9943;DHT22;5010;45.080;7.634;2024-03-06T11:43:23;13.90;99.90
9943;DHT22;5010;45.080;7.634;2024-03-06T11:45:52;14.00;99.90
9943;DHT22;5010;45.080;7.634;2024-03-06T11:48:20;14.10;63.30
9943;DHT22;5010;45.080;7.634;2024-03-06T11:50:48;14.30;1.00
9943;DHT22;5010;45.080;7.634;2024-03-06T11:53:20;14.40;1.00
9943;DHT22;5010;45.080;7.634;2024-03-06T11:55:49;14.40;1.00
9943;DHT22;5010;45.080;7.634;2024-03-06T11:58:18;14.40;1.00
9943;DHT22;5010;45.080;7.634;2024-03-06T12:00:47;14.40;1.00
9943;DHT22;5010;45.080;7.634;2024-03-06T12:03:15;14.40;1.00
9943;DHT22;5010;45.080;7.634;2024-03-06T12:05:44;14.50;1.00
9943;DHT22;5010;45.080;7.634;2024-03-06T12:08:13;14.70;1.00
9943;DHT22;5010;45.080;7.634;2024-03-06T12:10:42;14.80;99.90
9943;DHT22;5010;45.080;7.634;2024-03-06T12:13:10;14.80;1.00
9943;DHT22;5010;45.080;7.634;2024-03-06T12:15:37;14.80;99.90
9943;DHT22;5010;45.080;7.634;2024-03-06T12:18:05;14.70;99.90
9943;DHT22;5010;45.080;7.634;2024-03-06T12:20:33;14.70;99.90
9943;DHT22;5010;45.080;7.634;2024-03-06T12:23:02;14.50;99.90
9943;DHT22;5010;45.080;7.634;2024-03-06T12:25:30;14.20;99.90
9943;DHT22;5010;45.080;7.634;2024-03-06T12:28:07;14.10;1.00
9943;DHT22;5010;45.080;7.634;2024-03-06T12:30:41;14.40;1.00
9943;DHT22;5010;45.080;7.634;2024-03-06T12:33:10;14.50;1.00
9943;DHT22;5010;45.080;7.634;2024-03-06T12:35:41;14.70;1.00
9943;DHT22;5010;45.080;7.634;2024-03-06T12:38:15;14.90;99.90
9943;DHT22;5010;45.080;7.634;2024-03-06T12:40:43;15.00;99.90
9943;DHT22;5010;45.080;7.634;2024-03-06T12:43:12;15.20;99.90
9943;DHT22;5010;45.080;7.634;2024-03-06T12:45:40;15.30;99.90
9943;DHT22;5010;45.080;7.634;2024-03-06T12:48:08;15.40;99.90
9943;DHT22;5010;45.080;7.634;2024-03-06T12:50:36;15.50;57.10
9943;DHT22;5010;45.080;7.634;2024-03-06T12:53:04;15.60;81.20
9943;DHT22;5010;45.080;7.634;2024-03-06T12:55:32;15.80;64.80
9943;DHT22;5010;45.080;7.634;2024-03-06T12:58:00;16.00;1.00
9943;DHT22;5010;45.080;7.634;2024-03-06T13:00:30;16.10;1.00
9943;DHT22;5010;45.080;7.634;2024-03-06T13:02:57;16.20;1.00
9943;DHT22;5010;45.080;7.634;2024-03-06T13:05:25;16.20;1.00
9943;DHT22;5010;45.080;7.634;2024-03-06T13:07:53;15.90;1.00
9943;DHT22;5010;45.080;7.634;2024-03-06T13:10:21;15.80;1.00
9943;DHT22;5010;45.080;7.634;2024-03-06T13:12:49;15.80;1.00
9943;DHT22;5010;45.080;7.634;2024-03-06T13:15:16;16.10;1.00
9943;DHT22;5010;45.080;7.634;2024-03-06T13:17:46;16.20;1.00
9943;DHT22;5010;45.080;7.634;2024-03-06T13:20:14;16.20;1.00
9943;DHT22;5010;45.080;7.634;2024-03-06T13:22:42;16.40;1.00
9943;DHT22;5010;45.080;7.634;2024-03-06T13:25:10;16.60;1.00
9943;DHT22;5010;45.080;7.634;2024-03-06T13:27:38;16.70;1.00
9943;DHT22;5010;45.080;7.634;2024-03-06T13:30:07;16.60;1.00
9943;DHT22;5010;45.080;7.634;2024-03-06T13:32:35;16.50;1.00
9943;DHT22;5010;45.080;7.634;2024-03-06T13:35:05;16.00;1.00
9943;DHT22;5010;45.080;7.634;2024-03-06T13:37:38;16.10;1.00
9943;DHT22;5010;45.080;7.634;2024-03-06T13:40:07;16.30;1.00
9943;DHT22;5010;45.080;7.634;2024-03-06T13:42:39;16.50;1.00
9943;DHT22;5010;45.080;7.634;2024-03-06T13:45:07;16.60;1.00
9943;DHT22;5010;45.080;7.634;2024-03-06T13:47:38;16.40;1.00
9943;DHT22;5010;45.080;7.634;2024-03-06T13:50:10;16.50;1.00
9943;DHT22;5010;45.080;7.634;2024-03-06T13:52:38;16.70;1.00
9943;DHT22;5010;45.080;7.634;2024-03-06T13:55:06;16.60;1.00
9943;DHT22;5010;45.080;7.634;2024-03-06T13:57:35;16.30;1.00
9943;DHT22;5010;45.080;7.634;2024-03-06T14:00:04;15.90;1.00
9943;DHT22;5010;45.080;7.634;2024-03-06T14:02:32;15.60;1.00
9943;DHT22;5010;45.080;7.634;2024-03-06T14:05:00;15.40;1.00
9943;DHT22;5010;45.080;7.634;2024-03-06T14:07:29;15.20;1.00
9943;DHT22;5010;45.080;7.634;2024-03-06T14:09:57;15.00;1.00
9943;DHT22;5010;45.080;7.634;2024-03-06T14:12:25;14.80;1.00
9943;DHT22;5010;45.080;7.634;2024-03-06T14:14:53;14.60;34.50
9943;DHT22;5010;45.080;7.634;2024-03-06T14:17:20;14.50;99.90
9943;DHT22;5010;45.080;7.634;2024-03-06T14:19:48;14.50;62.60
9943;DHT22;5010;45.080;7.634;2024-03-06T14:22:16;14.40;3.00
9943;DHT22;5010;45.080;7.634;2024-03-06T14:24:45;14.30;57.80
9943;DHT22;5010;45.080;7.634;2024-03-06T14:27:13;14.40;82.60
9943;DHT22;5010;45.080;7.634;2024-03-06T14:29:41;14.50;91.10
9943;DHT22;5010;45.080;7.634;2024-03-06T14:32:08;14.50;69.30
9943;DHT22;5010;45.080;7.634;2024-03-06T14:34:36;14.60;28.60
9943;DHT22;5010;45.080;7.634;2024-03-06T14:37:04;14.60;24.50
9943;DHT22;5010;45.080;7.634;2024-03-06T14:39:32;14.60;1.80
9943;DHT22;5010;45.080;7.634;2024-03-06T14:42:01;14.60;17.00
9943;DHT22;5010;45.080;7.634;2024-03-06T14:44:30;14.60;10.50
9943;DHT22;5010;45.080;7.634;2024-03-06T14:46:58;14.80;41.70
9943;DHT22;5010;45.080;7.634;2024-03-06T14:49:25;15.00;17.80
9943;DHT22;5010;45.080;7.634;2024-03-06T14:51:53;15.10;1.00
9943;DHT22;5010;45.080;7.634;2024-03-06T14:54:21;15.00;1.00
9943;DHT22;5010;45.080;7.634;2024-03-06T14:56:52;15.00;1.00
9943;DHT22;5010;45.080;7.634;2024-03-06T14:59:21;14.90;1.00
9943;DHT22;5010;45.080;7.634;2024-03-06T15:01:49;14.90;1.00
9943;DHT22;5010;45.080;7.634;2024-03-06T15:04:17;15.00;1.00
9943;DHT22;5010;45.080;7.634;2024-03-06T15:06:46;15.10;1.00
9943;DHT22;5010;45.080;7.634;2024-03-06T15:09:14;15.10;1.00
9943;DHT22;5010;45.080;7.634;2024-03-06T15:11:47;15.10;1.00
9943;DHT22;5010;45.080;7.634;2024-03-06T15:14:18;15.00;1.00
9943;DHT22;5010;45.080;7.634;2024-03-06T15:16:47;15.00;1.00
9943;DHT22;5010;45.080;7.634;2024-03-06T15:19:15;14.90;1.00
9943;DHT22;5010;45.080;7.634;2024-03-06T15:21:43;15.10;1.00
9943;DHT22;5010;45.080;7.634;2024-03-06T15:24:11;15.00;1.00
9943;DHT22;5010;45.080;7.634;2024-03-06T15:26:39;15.10;1.00
9943;DHT22;5010;45.080;7.634;2024-03-06T15:29:07;15.00;1.00
9943;DHT22;5010;45.080;7.634;2024-03-06T15:31:35;14.70;1.00
9943;DHT22;5010;45.080;7.634;2024-03-06T15:34:05;14.70;1.00
9943;DHT22;5010;45.080;7.634;2024-03-06T15:36:32;14.70;1.00
9943;DHT22;5010;45.080;7.634;2024-03-06T15:39:00;14.70;1.00
9943;DHT22;5010;45.080;7.634;2024-03-06T15:41:28;14.60;1.00
9943;DHT22;5010;45.080;7.634;2024-03-06T15:43:56;14.50;1.00
9943;DHT22;5010;45.080;7.634;2024-03-06T15:46:24;14.50;1.00
9943;DHT22;5010;45.080;7.634;2024-03-06T15:48:52;14.50;1.00
9943;DHT22;5010;45.080;7.634;2024-03-06T15:51:21;14.50;1.00
9943;DHT22;5010;45.080;7.634;2024-03-06T15:53:49;14.50;1.00
9943;DHT22;5010;45.080;7.634;2024-03-06T15:56:18;14.50;1.00
9943;DHT22;5010;45.080;7.634;2024-03-06T15:58:47;14.50;1.00
9943;DHT22;5010;45.080;7.634;2024-03-06T16:01:15;14.40;1.00
9943;DHT22;5010;45.080;7.634;2024-03-06T16:03:43;14.30;1.00
9943;DHT22;5010;45.080;7.634;2024-03-06T16:06:11;14.20;1.00
9943;DHT22;5010;45.080;7.634;2024-03-06T16:08:40;14.10;1.00
9943;DHT22;5010;45.080;7.634;2024-03-06T16:11:08;13.90;1.00
9943;DHT22;5010;45.080;7.634;2024-03-06T16:13:36;13.90;9.70
9943;DHT22;5010;45.080;7.634;2024-03-06T16:16:04;13.70;12.80
9943;DHT22;5010;45.080;7.634;2024-03-06T16:18:32;13.50;31.60
9943;DHT22;5010;45.080;7.634;2024-03-06T16:21:00;13.30;48.50
9943;DHT22;5010;45.080;7.634;2024-03-06T16:23:28;13.20;55.00
9943;DHT22;5010;45.080;7.634;2024-03-06T16:25:57;13.00;99.90
9943;DHT22;5010;45.080;7.634;2024-03-06T16:28:25;12.90;99.90
9943;DHT22;5010;45.080;7.634;2024-03-06T16:30:53;12.80;99.90
9943;DHT22;5010;45.080;7.634;2024-03-06T16:33:20;12.70;99.90
9943;DHT22;5010;45.080;7.634;2024-03-06T16:35:48;12.60;99.90
9943;DHT22;5010;45.080;7.634;2024-03-06T16:38:16;12.50;99.90
9943;DHT22;5010;45.080;7.634;2024-03-06T16:40:45;12.40;1.00
9943;DHT22;5010;45.080;7.634;2024-03-06T16:43:15;12.40;30.00
9943;DHT22;5010;45.080;7.634;2024-03-06T16:45:43;12.20;99.90
9943;DHT22;5010;45.080;7.634;2024-03-06T16:48:10;12.20;1.00
9943;DHT22;5010;45.080;7.634;2024-03-06T16:50:40;12.10;1.00
9943;DHT22;5010;45.080;7.634;2024-03-06T16:53:07;12.00;99.90
9943;DHT22;5010;45.080;7.634;2024-03-06T16:55:35;11.90;99.90
9943;DHT22;5010;45.080;7.634;2024-03-06T16:58:03;11.80;1.00
9943;DHT22;5010;45.080;7.634;2024-03-06T17:00:32;11.50;1.00
9943;DHT22;5010;45.080;7.634;2024-03-06T17:03:00;11.20;99.90
9943;DHT22;5010;45.080;7.634;2024-03-06T17:05:28;10.90;99.90
9943;DHT22;5010;45.080;7.634;2024-03-06T17:07:55;10.70;1.00
9943;DHT22;5010;45.080;7.634;2024-03-06T17:10:23;10.40;1.00
9943;DHT22;5010;45.080;7.634;2024-03-06T17:12:51;10.30;99.90
9943;DHT22;5010;45.080;7.634;2024-03-06T17:15:20;10.20;99.90
9943;DHT22;5010;45.080;7.634;2024-03-06T17:17:50;10.10;1.00
9943;DHT22;5010;45.080;7.634;2024-03-06T17:20:17;9.90;1.00
9943;DHT22;5010;45.080;7.634;2024-03-06T17:22:46;10.00;1.00
9943;DHT22;5010;45.080;7.634;2024-03-06T17:25:14;10.20;1.00
9943;DHT22;5010;45.080;7.634;2024-03-06T17:27:44;10.20;85.00
9943;DHT22;5010;45.080;7.634;2024-03-06T17:30:12;10.20;53.70
9943;DHT22;5010;45.080;7.634;2024-03-06T17:32:41;10.10;48.00
9943;DHT22;5010;45.080;7.634;2024-03-06T17:35:10;9.80;7.40
9943;DHT22;5010;45.080;7.634;2024-03-06T17:37:38;9.60;1.00
9943;DHT22;5010;45.080;7.634;2024-03-06T17:40:07;9.40;43.10
9943;DHT22;5010;45.080;7.634;2024-03-06T17:42:37;9.50;1.00
9943;DHT22;5010;45.080;7.634;2024-03-06T17:45:06;9.40;1.00
9943;DHT22;5010;45.080;7.634;2024-03-06T17:47:34;9.20;1.00
9943;DHT22;5010;45.080;7.634;2024-03-06T17:50:02;9.00;21.70
9943;DHT22;5010;45.080;7.634;2024-03-06T17:52:31;8.90;99.90
9943;DHT22;5010;45.080;7.634;2024-03-06T17:54:59;9.00;1.00
9943;DHT22;5010;45.080;7.634;2024-03-06T17:57:27;9.10;1.00
9943;DHT22;5010;45.080;7.634;2024-03-06T17:59:55;9.20;1.00
9943;DHT22;5010;45.080;7.634;2024-03-06T18:02:23;9.20;1.00
9943;DHT22;5010;45.080;7.634;2024-03-06T18:04:50;9.30;99.90
9943;DHT22;5010;45.080;7.634;2024-03-06T18:07:18;9.00;99.90
9943;DHT22;5010;45.080;7.634;2024-03-06T18:09:48;8.70;99.90
9943;DHT22;5010;45.080;7.634;2024-03-06T18:12:17;8.60;1.00
9943;DHT22;5010;45.080;7.634;2024-03-06T18:14:45;8.50;84.80
9943;DHT22;5010;45.080;7.634;2024-03-06T18:17:13;8.40;1.00
9943;DHT22;5010;45.080;7.634;2024-03-06T18:19:41;8.30;99.90
9943;DHT22;5010;45.080;7.634;2024-03-06T18:22:08;8.20;9.30
9943;DHT22;5010;45.080;7.634;2024-03-06T18:24:36;8.10;1.00
9943;DHT22;5010;45.080;7.634;2024-03-06T18:27:06;8.00;99.90
9943;DHT22;5010;45.080;7.634;2024-03-06T18:29:33;8.00;1.00
9943;DHT22;5010;45.080;7.634;2024-03-06T18:32:01;8.10;99.90
9943;DHT22;5010;45.080;7.634;2024-03-06T18:34:31;8.00;99.90
9943;DHT22;5010;45.080;7.634;2024-03-06T18:37:00;7.90;1.00
9943;DHT22;5010;45.080;7.634;2024-03-06T18:39:29;7.90;99.90
9943;DHT22;5010;45.080;7.634;2024-03-06T18:42:07;7.90;99.90
9943;DHT22;5010;45.080;7.634;2024-03-06T18:44:35;8.00;1.00
9943;DHT22;5010;45.080;7.634;2024-03-06T18:47:05;8.00;99.90
9943;DHT22;5010;45.080;7.634;2024-03-06T18:49:34;7.90;38.60
9943;DHT22;5010;45.080;7.634;2024-03-06T18:52:02;7.90;48.80
9943;DHT22;5010;45.080;7.634;2024-03-06T18:54:30;7.90;99.90
9943;DHT22;5010;45.080;7.634;2024-03-06T18:56:58;7.90;1.00
9943;DHT22;5010;45.080;7.634;2024-03-06T18:59:27;7.90;1.00
9943;DHT22;5010;45.080;7.634;2024-03-06T19:01:55;7.90;1.00
9943;DHT22;5010;45.080;7.634;2024-03-06T19:04:22;7.80;99.90
9943;DHT22;5010;45.080;7.634;2024-03-06T19:06:51;7.70;1.00
9943;DHT22;5010;45.080;7.634;2024-03-06T19:09:19;7.60;99.90
9943;DHT22;5010;45.080;7.634;2024-03-06T19:11:47;7.60;99.90
9943;DHT22;5010;45.080;7.634;2024-03-06T19:14:19;7.70;99.90
9943;DHT22;5010;45.080;7.634;2024-03-06T19:16:49;7.70;99.90
9943;DHT22;5010;45.080;7.634;2024-03-06T19:19:18;7.70;1.00
9943;DHT22;5010;45.080;7.634;2024-03-06T19:21:46;7.60;1.00
9943;DHT22;5010;45.080;7.634;2024-03-06T19:24:17;7.50;1.00
9943;DHT22;5010;45.080;7.634;2024-03-06T19:26:47;7.40;99.90
9943;DHT22;5010;45.080;7.634;2024-03-06T19:29:14;7.40;99.90
9943;DHT22;5010;45.080;7.634;2024-03-06T19:31:42;7.40;97.60
9943;DHT22;5010;45.080;7.634;2024-03-06T19:34:13;7.30;99.90
9943;DHT22;5010;45.080;7.634;2024-03-06T19:36:43;7.40;99.90
9943;DHT22;5010;45.080;7.634;2024-03-06T19:39:14;7.40;1.00
9943;DHT22;5010;45.080;7.634;2024-03-06T19:41:41;7.30;1.00
9943;DHT22;5010;45.080;7.634;2024-03-06T19:44:09;7.30;1.00
9943;DHT22;5010;45.080;7.634;2024-03-06T19:46:37;7.20;99.90
9943;DHT22;5010;45.080;7.634;2024-03-06T19:49:05;7.30;1.00
9943;DHT22;5010;45.080;7.634;2024-03-06T19:51:35;7.20;99.90
9943;DHT22;5010;45.080;7.634;2024-03-06T19:54:30;7.10;1.00
9943;DHT22;5010;45.080;7.634;2024-03-06T20:10:27;6.90;1.00
9943;DHT22;5010;45.080;7.634;2024-03-06T20:12:55;7.00;46.10
9943;DHT22;5010;45.080;7.634;2024-03-06T20:15:27;7.10;99.90
9943;DHT22;5010;45.080;7.634;2024-03-06T20:17:55;7.20;1.00
9943;DHT22;5010;45.080;7.634;2024-03-06T20:20:23;7.30;1.00
9943;DHT22;5010;45.080;7.634;2024-03-06T20:22:51;7.30;99.90
9943;DHT22;5010;45.080;7.634;2024-03-06T20:25:22;7.20;1.00
9943;DHT22;5010;45.080;7.634;2024-03-06T20:27:52;7.20;1.00
9943;DHT22;5010;45.080;7.634;2024-03-06T20:30:19;7.20;99.90
9943;DHT22;5010;45.080;7.634;2024-03-06T20:32:47;7.20;1.00
9943;DHT22;5010;45.080;7.634;2024-03-06T20:35:15;7.30;1.00
9943;DHT22;5010;45.080;7.634;2024-03-06T20:37:46;7.30;1.00
9943;DHT22;5010;45.080;7.634;2024-03-06T20:40:14;7.30;1.00
9943;DHT22;5010;45.080;7.634;2024-03-06T20:42:42;7.30;1.00
9943;DHT22;5010;45.080;7.634;2024-03-06T20:45:12;7.30;1.00
9943;DHT22;5010;45.080;7.634;2024-03-06T20:47:40;7.30;1.00
9943;DHT22;5010;45.080;7.634;2024-03-06T20:50:08;7.30;1.00
9943;DHT22;5010;45.080;7.634;2024-03-06T20:52:36;7.20;99.90
9943;DHT22;5010;45.080;7.634;2024-03-06T20:55:05;7.10;1.00
9943;DHT22;5010;45.080;7.634;2024-03-06T20:57:33;6.90;1.00
9943;DHT22;5010;45.080;7.634;2024-03-06T21:00:00;6.80;1.00
9943;DHT22;5010;45.080;7.634;2024-03-06T21:02:31;6.80;1.00
9943;DHT22;5010;45.080;7.634;2024-03-06T21:04:57;6.80;1.00
9943;DHT22;5010;45.080;7.634;2024-03-06T21:07:25;6.70;1.00
9943;DHT22;5010;45.080;7.634;2024-03-06T21:09:53;6.70;1.00
9943;DHT22;5010;45.080;7.634;2024-03-06T21:12:21;6.60;83.20
9943;DHT22;5010;45.080;7.634;2024-03-06T21:14:48;6.60;1.00
9943;DHT22;5010;45.080;7.634;2024-03-06T21:17:20;6.60;1.00
9943;DHT22;5010;45.080;7.634;2024-03-06T21:19:51;6.50;1.00
9943;DHT22;5010;45.080;7.634;2024-03-06T21:22:19;6.40;1.00
9943;DHT22;5010;45.080;7.634;2024-03-06T21:24:48;6.30;99.90
9943;DHT22;5010;45.080;7.634;2024-03-06T21:27:15;6.30;99.90
9943;DHT22;5010;45.080;7.634;2024-03-06T21:29:45;6.30;1.00
9943;DHT22;5010;45.080;7.634;2024-03-06T22:29:47;6.20;17.40
9943;DHT22;5010;45.080;7.634;2024-03-06T22:32:14;6.20;1.00
9943;DHT22;5010;45.080;7.634;2024-03-06T22:34:42;6.20;1.00
9943;DHT22;5010;45.080;7.634;2024-03-06T22:37:10;6.30;69.40
9943;DHT22;5010;45.080;7.634;2024-03-06T22:39:37;6.30;1.00
9943;DHT22;5010;45.080;7.634;2024-03-06T22:42:05;6.30;62.20
9943;DHT22;5010;45.080;7.634;2024-03-06T22:44:33;6.30;1.00
9943;DHT22;5010;45.080;7.634;2024-03-06T22:47:02;6.30;99.90
9943;DHT22;5010;45.080;7.634;2024-03-06T22:49:29;6.20;1.00
9943;DHT22;5010;45.080;7.634;2024-03-06T22:51:57;6.30;1.00
9943;DHT22;5010;45.080;7.634;2024-03-06T22:54:25;6.30;1.00
9943;DHT22;5010;45.080;7.634;2024-03-06T22:56:52;6.30;1.00
9943;DHT22;5010;45.080;7.634;2024-03-06T22:59:20;6.30;99.90
9943;DHT22;5010;45.080;7.634;2024-03-06T23:01:48;6.20;1.00
9943;DHT22;5010;45.080;7.634;2024-03-06T23:04:17;6.20;66.70
9943;DHT22;5010;45.080;7.634;2024-03-06T23:26:58;6.30;1.00
9943;DHT22;5010;45.080;7.634;2024-03-06T23:29:26;6.30;1.00
9943;DHT22;5010;45.080;7.634;2024-03-06T23:31:53;6.20;1.00
9943;DHT22;5010;45.080;7.634;2024-03-06T23:34:21;6.10;1.00
9943;DHT22;5010;45.080;7.634;2024-03-06T23:36:48;6.00;99.90
9943;DHT22;5010;45.080;7.634;2024-03-06T23:39:16;5.90;95.20
9943;DHT22;5010;45.080;7.634;2024-03-06T23:41:44;5.80;1.00
9943;DHT22;5010;45.080;7.634;2024-03-06T23:44:14;5.60;1.00
9943;DHT22;5010;45.080;7.634;2024-03-06T23:46:41;5.50;55.10
9943;DHT22;5010;45.080;7.634;2024-03-06T23:49:10;5.50;99.90
9943;DHT22;5010;45.080;7.634;2024-03-06T23:51:39;5.70;1.00
9943;DHT22;5010;45.080;7.634;2024-03-06T23:54:07;5.80;1.00
9943;DHT22;5010;45.080;7.634;2024-03-06T23:56:35;5.90;99.90
9943;DHT22;5010;45.080;7.634;2024-03-06T23:59:03;6.00;1.00
